Time;durP1;ratioP1;P1;durP2;ratioP2;P2;SDS_P1;SDS_P2;PMS_P1;PMS_P2;Temp;Humidity;BMP_temperature;BMP_pressure;BME280_temperature;BME280_humidity;BME280_pressure;Samples;Min_cycle;Max_cycle;Signal;HPM_P1;HPM_P2
2023/01/03 00:01:21;;;;;;;20.10;10.18;;;3.30;99.90;;;;;;6152603;23;20072;-81
2023/01/03 00:03:47;;;;;;;19.98;10.60;;;3.40;99.90;;;;;;6152849;23;20419;-82
2023/01/03 00:06:20;;;;;;;19.33;10.73;;;3.30;99.90;;;;;;6152532;23;20051;-82
2023/01/03 00:08:46;;;;;;;16.85;8.55;;;3.40;99.90;;;;;;6151949;23;20021;-81
2023/01/03 00:11:17;;;;;;;21.33;9.60;;;3.20;99.90;;;;;;6152831;23;20010;-82
2023/01/03 00:13:44;;;;;;;25.30;9.73;;;3.20;99.90;;;;;;6152186;23;20052;-83
2023/01/03 00:16:17;;;;;;;17.85;9.18;;;3.60;99.90;;;;;;6152212;23;20348;-83
2023/01/03 00:18:43;;;;;;;14.18;8.02;;;3.10;99.90;;;;;;6127583;23;20021;-83
2023/01/03 00:21:09;;;;;;;22.13;9.57;;;3.10;99.90;;;;;;6127408;23;20014;-82
2023/01/03 00:23:35;;;;;;;16.50;9.43;;;3.10;99.90;;;;;;6153401;23;20328;-81
2023/01/03 00:26:11;;;;;;;16.95;9.50;;;3.10;99.90;;;;;;6152532;23;20020;-82
2023/01/03 00:28:37;;;;;;;18.48;9.20;;;3.00;99.90;;;;;;6151948;23;20016;-81
2023/01/03 00:31:08;;;;;;;23.25;11.68;;;3.00;99.90;;;;;;6151928;23;20009;-81
2023/01/03 00:33:36;;;;;;;16.40;10.65;;;3.00;99.90;;;;;;6127500;23;20045;-82
2023/01/03 00:36:07;;;;;;;21.17;11.27;;;2.90;99.90;;;;;;6152845;23;20017;-82
2023/01/03 00:38:33;;;;;;;18.70;11.40;;;2.90;99.90;;;;;;6151765;23;20068;-81
2023/01/03 00:41:04;;;;;;;18.02;10.63;;;2.90;99.90;;;;;;6154020;23;20084;-82
2023/01/03 00:43:29;;;;;;;28.55;11.30;;;2.90;99.90;;;;;;6151986;23;20073;-82
2023/01/03 00:45:55;;;;;;;22.00;10.88;;;2.80;99.90;;;;;;6152234;23;20009;-82
2023/01/03 00:48:21;;;;;;;18.70;10.88;;;2.80;99.90;;;;;;6153972;23;20013;-82
2023/01/03 00:50:46;;;;;;;20.60;9.75;;;2.80;99.90;;;;;;6151301;23;20520;-82
2023/01/03 00:53:13;;;;;;;17.83;9.60;;;2.70;99.90;;;;;;6152333;23;20274;-81
2023/01/03 00:55:38;;;;;;;21.48;11.05;;;2.60;99.90;;;;;;6152055;23;20013;-81
2023/01/03 00:58:04;;;;;;;20.48;10.07;;;2.60;99.90;;;;;;6151826;23;20005;-82
2023/01/03 01:00:30;;;;;;;22.48;9.93;;;2.60;99.90;;;;;;6127158;23;20041;-81
2023/01/03 01:02:55;;;;;;;23.17;11.25;;;2.50;99.90;;;;;;6153782;23;20155;-81
2023/01/03 01:05:22;;;;;;;20.17;10.23;;;2.50;99.90;;;;;;6126779;23;20032;-82
2023/01/03 01:07:47;;;;;;;22.48;10.40;;;2.50;99.90;;;;;;6151760;23;20010;-82
2023/01/03 01:10:13;;;;;;;19.88;9.75;;;2.50;99.90;;;;;;6151854;23;20060;-82
2023/01/03 01:12:39;;;;;;;20.30;9.82;;;2.40;99.90;;;;;;6127084;23;20020;-82
2023/01/03 01:15:05;;;;;;;16.58;9.55;;;2.40;99.90;;;;;;6127232;23;20037;-81
2023/01/03 01:17:31;;;;;;;18.60;10.57;;;2.50;99.90;;;;;;6151760;23;20009;-82
2023/01/03 01:19:56;;;;;;;18.58;10.85;;;2.50;99.90;;;;;;6152695;23;20016;-82
2023/01/03 01:22:22;;;;;;;27.10;11.23;;;2.50;99.90;;;;;;6151659;23;20352;-81
2023/01/03 01:24:48;;;;;;;23.83;11.40;;;2.50;99.90;;;;;;6153444;23;20009;-83
2023/01/03 01:27:14;;;;;;;22.40;11.98;;;2.60;99.90;;;;;;6151581;23;20507;-82
2023/01/03 01:29:39;;;;;;;22.63;12.35;;;2.60;99.90;;;;;;6153137;23;20018;-82
2023/01/03 01:32:05;;;;;;;19.63;11.15;;;2.60;99.90;;;;;;6151500;23;20494;-82
2023/01/03 01:34:31;;;;;;;25.10;13.30;;;2.70;99.90;;;;;;6152873;23;20020;-82
2023/01/03 01:36:57;;;;;;;24.15;13.02;;;2.70;99.90;;;;;;6152913;23;20013;-83
2023/01/03 01:39:25;;;;;;;24.23;12.57;;;2.80;99.90;;;;;;6151655;23;20181;-83
2023/01/03 01:45:10;;;;;;;24.60;12.70;;;2.90;99.90;;;;;;6151340;23;20018;-83
2023/01/03 01:47:51;;;;;;;31.25;12.70;;;3.00;99.90;;;;;;6145735;23;20022;-82
2023/01/03 01:50:24;;;;;;;23.77;11.48;;;3.00;99.90;;;;;;6151005;23;20023;-82
2023/01/03 01:52:58;;;;;;;31.87;12.63;;;3.00;99.90;;;;;;6151692;23;20021;-83
2023/01/03 01:55:35;;;;;;;27.00;12.30;;;3.10;99.90;;;;;;6153510;23;20031;-83
2023/01/03 01:58:01;;;;;;;24.77;12.57;;;3.10;99.90;;;;;;6127046;23;20009;-83
2023/01/03 02:00:28;;;;;;;20.63;11.75;;;3.20;99.90;;;;;;6151332;23;20010;-82
2023/01/03 02:02:54;;;;;;;25.23;11.82;;;3.20;99.90;;;;;;6151362;23;20093;-82
2023/01/03 02:05:21;;;;;;;20.80;10.65;;;3.20;99.90;;;;;;6152419;23;20012;-82
2023/01/03 02:07:51;;;;;;;25.52;12.50;;;3.20;99.90;;;;;;6153676;23;20112;-82
2023/01/03 02:10:54;;;;;;;20.55;11.20;;;3.20;99.90;;;;;;6151404;23;20013;-82
2023/01/03 02:13:39;;;;;;;22.40;12.20;;;3.20;99.90;;;;;;6151555;23;20029;-83
2023/01/03 02:16:38;;;;;;;24.63;11.52;;;3.10;99.90;;;;;;6151782;23;20082;-83
2023/01/03 02:19:45;;;;;;;19.00;10.75;;;3.10;99.90;;;;;;6150735;23;20027;-81
2023/01/03 02:22:36;;;;;;;25.02;12.23;;;3.10;99.90;;;;;;6151233;23;20017;-83
2023/01/03 02:25:23;;;;;;;28.77;12.48;;;3.20;99.90;;;;;;6151527;23;20013;-83
2023/01/03 02:28:22;;;;;;;22.70;12.88;;;3.10;99.90;;;;;;6152955;23;20014;-82
2023/01/03 02:31:01;;;;;;;25.25;14.18;;;3.10;99.90;;;;;;6151501;23;20017;-82
2023/01/03 02:33:44;;;;;;;26.63;12.60;;;3.20;99.90;;;;;;6152770;23;20023;-82
2023/01/03 02:36:15;;;;;;;27.27;14.38;;;3.20;99.90;;;;;;6153355;23;20431;-82
2023/01/03 02:39:00;;;;;;;27.77;15.15;;;3.20;99.90;;;;;;6153384;23;20101;-82
2023/01/03 02:41:37;;;;;;;21.83;14.10;;;3.50;99.90;;;;;;6155213;23;20009;-83
2023/01/03 02:44:29;;;;;;;25.90;15.52;;;3.30;99.90;;;;;;6152887;23;20445;-82
2023/01/03 02:47:06;;;;;;;26.23;15.57;;;3.40;99.90;;;;;;6152483;23;20013;-82
2023/01/03 02:49:41;;;;;;;27.05;16.15;;;3.40;99.90;;;;;;6155001;23;20009;-83
2023/01/03 02:52:13;;;;;;;28.73;14.75;;;3.40;99.90;;;;;;6154985;23;20088;-82
2023/01/03 02:54:44;;;;;;;31.60;16.25;;;3.40;99.90;;;;;;6155048;23;20010;-82
2023/01/03 02:57:17;;;;;;;30.60;15.82;;;3.40;99.90;;;;;;6152997;23;20013;-82
2023/01/03 02:59:52;;;;;;;26.27;15.30;;;3.40;99.90;;;;;;6154951;23;20022;-82
2023/01/03 03:02:21;;;;;;;25.67;14.63;;;3.40;99.90;;;;;;6154262;23;20286;-82
2023/01/03 03:04:51;;;;;;;30.80;15.18;;;3.40;99.90;;;;;;6153448;23;20013;-82
2023/01/03 03:07:25;;;;;;;21.40;13.73;;;3.60;99.90;;;;;;6154713;23;20017;-83
2023/01/03 03:15:31;;;;;;;26.90;14.30;;;2.90;99.90;;;;;;6154382;23;20032;-82
2023/01/03 03:18:02;;;;;;;22.92;15.35;;;2.90;99.90;;;;;;6152273;23;20017;-82
2023/01/03 03:26:14;;;;;;;27.95;17.20;;;2.80;99.90;;;;;;6152744;23;20325;-82
2023/01/03 03:28:43;;;;;;;30.42;17.13;;;2.70;99.90;;;;;;6153077;23;20013;-83
2023/01/03 03:31:35;;;;;;;29.95;16.60;;;2.70;99.90;;;;;;6152134;23;20020;-82
2023/01/03 03:34:13;;;;;;;33.10;17.40;;;2.60;99.90;;;;;;6152567;23;20068;-83
2023/01/03 03:36:45;;;;;;;37.80;18.45;;;2.60;99.90;;;;;;6154067;23;20398;-83
2023/01/03 03:45:22;;;;;;;32.08;18.77;;;2.40;99.90;;;;;;6153322;23;20500;-82
2023/01/03 03:47:56;;;;;;;32.08;20.23;;;2.40;99.90;;;;;;6152267;23;20009;-83
2023/01/03 03:50:36;;;;;;;28.02;19.15;;;2.30;99.90;;;;;;6154194;23;20020;-82
2023/01/03 03:53:08;;;;;;;33.10;20.98;;;2.30;99.90;;;;;;6154513;23;20015;-83
2023/01/03 03:55:50;;;;;;;33.10;19.27;;;2.30;99.90;;;;;;6154926;23;20109;-82
2023/01/03 03:58:29;;;;;;;37.33;21.42;;;2.20;99.90;;;;;;6154682;23;20017;-83
2023/01/03 04:00:55;;;;;;;43.78;22.27;;;2.10;99.90;;;;;;6151911;23;20044;-82
2023/01/03 04:03:22;;;;;;;36.60;21.33;;;2.10;99.90;;;;;;6153891;23;20411;-83
2023/01/03 04:05:59;;;;;;;45.80;23.70;;;2.10;99.90;;;;;;6152428;23;20024;-83
2023/01/03 04:08:25;;;;;;;40.97;21.95;;;2.10;99.90;;;;;;6152342;23;20017;-82
2023/01/03 04:10:51;;;;;;;34.40;20.88;;;2.00;99.90;;;;;;6152513;23;20045;-82
2023/01/03 04:13:16;;;;;;;43.10;23.83;;;2.00;99.90;;;;;;6152016;23;20361;-82
2023/01/03 04:15:42;;;;;;;36.92;22.25;;;2.00;99.90;;;;;;6153241;23;20010;-82
2023/01/03 04:18:08;;;;;;;45.88;23.33;;;1.90;99.90;;;;;;6152196;23;20013;-82
2023/01/03 04:20:33;;;;;;;38.42;23.52;;;2.00;99.90;;;;;;6152162;23;20104;-82
2023/01/03 04:22:59;;;;;;;52.65;25.10;;;1.90;99.90;;;;;;6153631;23;20089;-82
2023/01/03 04:25:25;;;;;;;45.28;24.63;;;1.90;99.90;;;;;;6153821;23;20085;-82
2023/01/03 04:27:50;;;;;;;53.65;26.50;;;1.90;99.90;;;;;;6152152;23;20049;-82
2023/01/03 04:30:16;;;;;;;46.17;25.00;;;1.90;99.90;;;;;;6153387;23;20012;-83
2023/01/03 04:32:42;;;;;;;48.03;25.77;;;1.90;99.90;;;;;;6152129;23;20093;-82
2023/01/03 04:35:08;;;;;;;53.03;27.15;;;2.30;99.90;;;;;;6151829;23;20017;-82
2023/01/03 04:37:34;;;;;;;59.75;29.95;;;1.90;99.90;;;;;;6151853;23;20017;-82
2023/01/03 04:39:59;;;;;;;49.38;29.92;;;1.90;99.90;;;;;;6152431;23;20071;-82
2023/01/03 04:45:10;;;;;;;56.50;28.95;;;1.90;99.90;;;;;;6151982;23;20445;-83
2023/01/03 04:47:35;;;;;;;63.35;31.48;;;1.80;99.90;;;;;;6151854;23;20010;-82
2023/01/03 04:50:01;;;;;;;47.55;26.65;;;1.80;99.90;;;;;;6151846;23;20005;-81
2023/01/03 04:52:28;;;;;;;59.22;31.40;;;1.80;99.90;;;;;;6153320;23;20086;-81
2023/01/03 04:54:54;;;;;;;56.45;30.77;;;1.80;99.90;;;;;;6127398;23;20389;-82
2023/01/03 04:57:19;;;;;;;66.53;33.95;;;1.80;99.90;;;;;;6151240;23;20060;-83
2023/01/03 04:59:45;;;;;;;91.88;38.53;;;1.80;99.90;;;;;;6151722;23;20021;-82
2023/01/03 05:02:11;;;;;;;68.55;35.28;;;1.80;99.90;;;;;;6153503;23;20017;-82
2023/01/03 05:04:36;;;;;;;78.80;36.72;;;1.90;99.90;;;;;;6152119;23;20345;-82
2023/01/03 05:07:02;;;;;;;85.45;37.33;;;1.90;99.90;;;;;;6151732;23;20085;-82
2023/01/03 05:09:27;;;;;;;101.00;39.25;;;2.20;99.90;;;;;;6151661;23;20020;-82
2023/01/03 05:11:53;;;;;;;74.57;35.35;;;1.90;99.90;;;;;;6151041;23;20021;-82
2023/01/03 05:14:19;;;;;;;64.18;32.85;;;2.00;99.90;;;;;;6151327;23;20013;-82
2023/01/03 05:16:45;;;;;;;106.25;41.65;;;2.00;99.90;;;;;;6151104;23;20033;-82
2023/01/03 05:19:10;;;;;;;86.55;37.90;;;2.00;99.90;;;;;;6151518;23;20064;-82
2023/01/03 05:27:05;;;;;;;84.78;41.03;;;2.20;99.90;;;;;;6150836;23;20051;-82
2023/01/03 05:29:34;;;;;;;91.90;42.88;;;2.30;99.90;;;;;;6152793;23;20009;-82
2023/01/03 05:32:00;;;;;;;96.53;44.60;;;2.50;99.90;;;;;;6153355;23;20064;-82
2023/01/03 05:34:25;;;;;;;93.18;44.17;;;2.40;99.90;;;;;;6153524;23;20010;-82
2023/01/03 05:36:51;;;;;;;94.22;44.40;;;2.50;99.90;;;;;;6151541;23;20009;-83
2023/01/03 05:39:17;;;;;;;101.85;45.83;;;2.60;99.90;;;;;;6151575;23;20041;-82
2023/01/03 05:42:00;;;;;;;101.47;47.67;;;2.60;99.90;;;;;;6150864;23;20029;-82
2023/01/03 05:44:32;;;;;;;109.57;48.33;;;2.70;99.90;;;;;;6151183;23;20024;-83
2023/01/03 05:46:58;;;;;;;114.43;47.97;;;2.70;99.90;;;;;;6153285;23;20080;-82
2023/01/03 05:49:24;;;;;;;108.30;47.15;;;2.70;99.90;;;;;;6151346;23;20434;-82
2023/01/03 05:51:50;;;;;;;102.15;45.95;;;2.80;99.90;;;;;;6151194;23;20017;-82
2023/01/03 05:54:17;;;;;;;119.07;48.55;;;2.80;99.90;;;;;;6153488;23;20014;-82
2023/01/03 05:56:43;;;;;;;110.30;47.22;;;2.80;99.90;;;;;;6152972;23;20021;-82
2023/01/03 05:59:09;;;;;;;114.03;47.25;;;2.80;99.90;;;;;;6153302;23;20277;-83
2023/01/03 06:01:35;;;;;;;99.07;45.42;;;2.80;99.90;;;;;;6151325;23;20380;-83
2023/01/03 06:04:01;;;;;;;111.93;47.33;;;2.80;99.90;;;;;;6151507;23;20013;-82
2023/01/03 06:06:27;;;;;;;106.65;45.83;;;2.80;99.90;;;;;;6151104;23;20013;-82
2023/01/03 06:08:53;;;;;;;106.30;46.83;;;2.90;99.90;;;;;;6151743;23;20025;-82
2023/01/03 06:11:19;;;;;;;100.65;45.15;;;2.90;99.90;;;;;;6150953;23;20014;-82
2023/01/03 06:13:44;;;;;;;79.90;41.20;;;3.00;99.90;;;;;;6151099;23;20021;-83
2023/01/03 06:18:57;;;;;;;88.40;41.58;;;2.80;99.90;;;;;;6152995;23;20017;-82
2023/01/03 06:21:23;;;;;;;102.38;44.38;;;3.00;99.90;;;;;;6152023;23;20017;-81
2023/01/03 06:23:48;;;;;;;90.10;41.53;;;2.70;99.90;;;;;;6151048;23;20018;-82
2023/01/03 06:26:16;;;;;;;84.97;41.15;;;2.60;99.90;;;;;;6126128;23;20112;-81
2023/01/03 06:28:41;;;;;;;103.70;43.35;;;2.70;99.90;;;;;;6151194;23;20313;-82
2023/01/03 06:31:07;;;;;;;90.45;41.13;;;2.40;99.90;;;;;;6152690;23;20017;-81
2023/01/03 06:33:33;;;;;;;84.47;41.75;;;2.80;99.90;;;;;;6152939;23;20045;-81
2023/01/03 06:36:04;;;;;;;86.97;40.60;;;3.10;99.90;;;;;;6151558;23;20097;-82
2023/01/03 06:38:31;;;;;;;90.60;41.47;;;2.30;99.90;;;;;;6151034;23;20017;-80
2023/01/03 06:40:56;;;;;;;89.38;41.75;;;2.30;99.90;;;;;;6150534;23;20013;-82
2023/01/03 06:43:22;;;;;;;85.07;41.20;;;2.20;99.90;;;;;;6150766;23;20021;-81
2023/01/03 06:54:05;;;;;;;83.50;39.45;;;2.00;99.90;;;;;;6150795;23;20025;-82
2023/01/03 06:56:30;;;;;;;83.25;38.85;;;1.90;99.90;;;;;;6151362;23;20018;-81
2023/01/03 06:58:56;;;;;;;93.25;40.58;;;1.80;99.90;;;;;;6153204;23;20017;-81
2023/01/03 07:01:21;;;;;;;136.88;43.60;;;1.80;99.90;;;;;;6151227;23;20006;-81
2023/01/03 07:03:47;;;;;;;104.78;42.58;;;1.70;99.90;;;;;;6153163;23;20060;-81
2023/01/03 07:06:13;;;;;;;104.38;42.55;;;1.70;99.90;;;;;;6127004;23;20026;-80
2023/01/03 07:08:38;;;;;;;83.45;39.80;;;1.60;99.90;;;;;;6126202;23;20024;-81
2023/01/03 07:11:04;;;;;;;75.40;39.10;;;1.60;99.90;;;;;;6127256;23;20028;-82
2023/01/03 07:16:16;;;;;;;77.80;38.60;;;1.50;99.90;;;;;;6153147;23;20018;-81
2023/01/03 07:18:42;;;;;;;105.63;41.92;;;1.50;99.90;;;;;;6127988;23;20412;-81
2023/01/03 07:21:07;;;;;;;93.18;41.65;;;1.60;99.90;;;;;;6153176;23;20020;-81
2023/01/03 07:23:33;;;;;;;87.25;41.75;;;1.40;99.90;;;;;;6154584;23;20373;-81
2023/01/03 07:25:59;;;;;;;102.07;43.20;;;1.40;99.90;;;;;;6153889;23;20084;-80
2023/01/03 07:28:24;;;;;;;92.97;42.47;;;1.30;99.90;;;;;;6154659;23;20025;-80
2023/01/03 07:30:50;;;;;;;82.75;41.65;;;2.00;99.90;;;;;;6127795;23;20024;-81
2023/01/03 07:33:17;;;;;;;112.03;47.42;;;1.30;99.90;;;;;;6154265;23;20014;-81
2023/01/03 07:35:42;;;;;;;87.60;41.08;;;1.20;99.90;;;;;;6152479;23;20017;-81
2023/01/03 07:38:09;;;;;;;93.55;42.90;;;1.20;99.90;;;;;;6153537;23;20040;-81
2023/01/03 07:40:34;;;;;;;107.68;46.13;;;1.20;99.90;;;;;;6153015;23;20084;-81
2023/01/03 07:45:45;;;;;;;123.43;50.47;;;1.20;99.90;;;;;;6154307;23;20017;-81
2023/01/03 07:48:12;;;;;;;120.85;48.70;;;1.20;99.90;;;;;;6154003;23;20377;-81
2023/01/03 07:50:38;;;;;;;124.55;49.30;;;1.20;99.90;;;;;;6153839;23;20013;-81
2023/01/03 07:53:06;;;;;;;115.47;48.40;;;1.20;99.90;;;;;;6151573;23;20036;-81
2023/01/03 07:55:32;;;;;;;116.85;48.10;;;1.10;99.90;;;;;;6154558;23;20057;-81
2023/01/03 07:57:59;;;;;;;122.57;49.30;;;1.10;99.90;;;;;;6154390;23;20037;-81
2023/01/03 08:00:25;;;;;;;97.32;46.88;;;1.10;99.90;;;;;;6153020;23;20014;-82
2023/01/03 08:02:54;;;;;;;112.78;48.25;;;1.10;99.90;;;;;;6152692;23;20075;-82
2023/01/03 08:05:21;;;;;;;104.97;48.17;;;1.10;99.90;;;;;;6152526;23;20021;-81
2023/01/03 08:07:48;;;;;;;116.15;51.22;;;1.10;99.90;;;;;;6154119;23;20044;-83
2023/01/03 08:13:18;;;;;;;137.18;55.45;;;1.20;99.90;;;;;;6153526;23;20055;-81
2023/01/03 08:15:44;;;;;;;120.43;55.47;;;1.20;99.90;;;;;;6154192;23;20053;-80
2023/01/03 08:18:10;;;;;;;121.07;53.25;;;1.20;99.90;;;;;;6154011;23;20382;-82
2023/01/03 08:20:36;;;;;;;116.97;52.10;;;1.20;99.90;;;;;;6153510;23;20357;-81
2023/01/03 08:23:01;;;;;;;102.03;51.75;;;1.20;99.90;;;;;;6151714;23;20096;-80
2023/01/03 08:25:27;;;;;;;149.85;57.25;;;1.70;99.90;;;;;;6152207;23;20322;-80
2023/01/03 08:27:57;;;;;;;138.43;57.08;;;1.20;99.90;;;;;;6153744;23;20088;-80
2023/01/03 08:30:22;;;;;;;139.55;58.55;;;1.60;99.90;;;;;;6153874;23;20336;-80
2023/01/03 08:32:48;;;;;;;117.93;55.95;;;2.10;99.90;;;;;;6151236;23;20016;-80
2023/01/03 08:35:15;;;;;;;111.47;55.50;;;1.30;99.90;;;;;;6152419;23;20017;-80
2023/01/03 08:37:43;;;;;;;105.53;52.38;;;1.60;99.90;;;;;;6127433;23;20052;-81
2023/01/03 08:40:11;;;;;;;109.10;53.53;;;1.40;99.90;;;;;;6151818;23;20021;-81
2023/01/03 08:42:37;;;;;;;105.57;53.50;;;1.40;99.90;;;;;;6151781;23;20018;-81
2023/01/03 08:45:08;;;;;;;112.43;53.67;;;1.40;99.90;;;;;;6151911;23;20456;-82
2023/01/03 08:47:34;;;;;;;119.38;56.67;;;1.50;99.90;;;;;;6127612;23;20025;-82
2023/01/03 08:50:00;;;;;;;118.50;53.50;;;1.50;99.90;;;;;;6151738;23;20029;-81
2023/01/03 08:52:26;;;;;;;140.18;60.33;;;1.60;99.90;;;;;;6127714;23;20361;-83
2023/01/03 08:54:52;;;;;;;117.93;53.88;;;1.70;99.90;;;;;;6151904;23;20014;-82
2023/01/03 08:57:17;;;;;;;143.80;57.38;;;1.70;99.90;;;;;;6151593;23;20013;-81
2023/01/03 08:59:43;;;;;;;137.40;56.58;;;1.80;99.90;;;;;;6151863;23;20013;-81
2023/01/03 09:02:09;;;;;;;170.98;58.80;;;1.80;99.90;;;;;;6153358;23;20337;-81
2023/01/03 09:04:34;;;;;;;179.85;56.47;;;1.80;99.90;;;;;;6151137;23;20017;-82
2023/01/03 09:07:00;;;;;;;136.52;52.70;;;1.80;99.90;;;;;;6153484;23;20084;-82
2023/01/03 09:09:26;;;;;;;172.20;51.95;;;1.80;99.90;;;;;;6151498;23;20013;-80
2023/01/03 09:11:51;;;;;;;179.88;49.38;;;1.80;99.90;;;;;;6153044;23;20032;-79
2023/01/03 09:14:17;;;;;;;233.48;54.22;;;1.80;99.90;;;;;;6150952;23;20009;-81
2023/01/03 09:16:43;;;;;;;190.68;47.47;;;1.80;99.90;;;;;;6152326;23;20020;-83
2023/01/03 09:19:09;;;;;;;189.95;43.05;;;1.80;99.90;;;;;;6154729;23;20009;-82
2023/01/03 09:21:35;;;;;;;85.32;37.92;;;2.60;99.90;;;;;;6152452;23;20091;-81
2023/01/03 09:24:00;;;;;;;189.13;42.83;;;1.80;99.90;;;;;;6152810;23;20013;-80
2023/01/03 09:26:26;;;;;;;329.23;62.05;;;1.90;99.90;;;;;;6153238;23;20013;-80
2023/01/03 09:28:51;;;;;;;213.07;45.83;;;1.80;99.90;;;;;;6151339;23;20056;-81
2023/01/03 09:31:17;;;;;;;166.15;45.10;;;2.50;99.90;;;;;;6153494;23;20060;-81
2023/01/03 09:33:43;;;;;;;272.38;48.28;;;2.50;99.90;;;;;;6152785;23;20333;-81
2023/01/03 09:36:08;;;;;;;206.02;44.45;;;2.10;99.90;;;;;;6152939;23;20470;-81
2023/01/03 09:38:35;;;;;;;259.85;51.40;;;2.10;99.90;;;;;;6151663;23;20048;-80
2023/01/03 09:41:07;;;;;;;235.73;52.00;;;2.20;99.90;;;;;;6151260;23;20461;-81
2023/01/03 09:43:45;;;;;;;341.17;57.15;;;2.50;99.90;;;;;;6153375;23;20072;-80
2023/01/03 09:46:24;;;;;;;352.65;57.72;;;2.30;99.90;;;;;;6153643;23;20071;-81
2023/01/03 09:48:52;;;;;;;194.13;49.90;;;2.30;99.90;;;;;;6152409;23;20464;-80
2023/01/03 10:03:42;;;;;;;356.93;64.77;;;2.70;99.90;;;;;;6152738;23;19916;-81
2023/01/03 10:06:34;;;;;;;402.02;68.28;;;2.80;99.90;;;;;;6151273;23;20381;-81
2023/01/03 10:09:23;;;;;;;411.08;64.97;;;2.90;99.90;;;;;;6151278;23;20421;-81
2023/01/03 10:12:10;;;;;;;347.60;63.95;;;3.00;99.90;;;;;;6151271;23;20021;-81
2023/01/03 10:14:45;;;;;;;508.13;79.35;;;3.10;99.90;;;;;;6153589;23;20024;-81
2023/01/03 10:17:37;;;;;;;370.48;66.43;;;3.20;99.90;;;;;;6150815;23;20072;-81
2023/01/03 10:20:08;;;;;;;310.50;64.40;;;3.30;99.90;;;;;;6151254;23;20017;-81
2023/01/03 10:22:36;;;;;;;265.90;59.00;;;3.30;99.90;;;;;;6151248;23;20013;-81
2023/01/03 10:25:09;;;;;;;336.83;64.35;;;3.40;99.90;;;;;;6126973;23;20054;-81
2023/01/03 10:27:45;;;;;;;270.98;63.95;;;3.50;99.90;;;;;;6153376;23;20045;-81
2023/01/03 10:30:48;;;;;;;302.23;68.28;;;3.50;99.90;;;;;;6126817;23;20021;-80
2023/01/03 10:33:37;;;;;;;222.55;63.05;;;3.60;99.90;;;;;;6151103;23;20022;-81
2023/01/03 10:36:03;;;;;;;236.23;64.05;;;4.30;99.90;;;;;;6109648;23;20022;-81
2023/01/03 10:38:29;;;;;;;222.38;63.30;;;3.70;99.90;;;;;;6153208;23;20036;-81
2023/01/03 10:41:00;;;;;;;229.88;65.60;;;3.80;99.90;;;;;;6151605;23;20467;-81
2023/01/03 10:43:32;;;;;;;175.25;59.85;;;3.90;99.90;;;;;;6151506;23;20014;-80
2023/01/03 10:46:24;;;;;;;169.55;60.85;;;3.90;99.90;;;;;;6152250;23;20024;-80
2023/01/03 10:48:51;;;;;;;201.00;64.38;;;4.00;99.90;;;;;;6151802;23;20018;-81
2023/01/03 10:51:31;;;;;;;196.55;61.45;;;4.10;99.90;;;;;;6151641;23;20041;-81
2023/01/03 10:53:59;;;;;;;187.35;62.28;;;4.20;99.90;;;;;;6154779;23;20440;-81
2023/01/03 10:56:28;;;;;;;194.60;64.55;;;4.20;99.90;;;;;;6153181;23;20348;-81
2023/01/03 10:59:15;;;;;;;160.45;61.88;;;4.30;99.90;;;;;;6128271;23;20417;-81
2023/01/03 11:02:07;;;;;;;181.75;62.28;;;4.30;99.90;;;;;;6154115;23;20444;-82
2023/01/03 11:04:34;;;;;;;156.75;62.45;;;4.40;99.90;;;;;;6152918;23;20100;-80
2023/01/03 11:07:20;;;;;;;191.45;65.72;;;4.50;99.90;;;;;;6128278;23;20344;-81
2023/01/03 11:09:58;;;;;;;187.82;65.50;;;4.60;99.90;;;;;;6152515;23;20040;-81
2023/01/03 11:12:29;;;;;;;180.85;65.75;;;4.70;99.90;;;;;;6152838;23;20014;-81
2023/01/03 11:14:56;;;;;;;172.95;63.92;;;4.80;99.90;;;;;;6152548;23;20016;-81
2023/01/03 11:17:26;;;;;;;147.25;61.25;;;4.90;99.90;;;;;;6128550;23;20009;-81
2023/01/03 11:19:54;;;;;;;155.48;60.38;;;5.00;99.90;;;;;;6155092;23;20045;-81
2023/01/03 11:22:34;;;;;;;167.63;64.60;;;5.10;99.90;;;;;;6155061;23;20013;-81
2023/01/03 11:25:23;;;;;;;151.98;61.70;;;5.20;99.90;;;;;;6128603;23;20024;-82
2023/01/03 11:28:01;;;;;;;131.85;56.72;;;5.30;99.90;;;;;;6155106;23;20035;-81
2023/01/03 11:30:42;;;;;;;112.22;53.25;;;5.30;99.90;;;;;;6152480;23;20045;-81
2023/01/03 11:33:30;;;;;;;132.13;55.78;;;5.30;99.90;;;;;;6155579;23;20018;-83
2023/01/03 11:36:19;;;;;;;119.75;55.38;;;5.30;99.90;;;;;;6153113;23;20010;-81
2023/01/03 11:39:05;;;;;;;114.53;55.28;;;5.40;99.90;;;;;;6156221;23;20018;-83
2023/01/03 11:41:37;;;;;;;124.57;55.20;;;5.40;99.90;;;;;;6155176;23;20017;-83
2023/01/03 11:44:21;;;;;;;133.52;55.45;;;5.50;99.90;;;;;;6129465;23;20152;-82
2023/01/03 11:47:01;;;;;;;114.82;52.95;;;5.50;99.90;;;;;;6128892;23;20052;-83
2023/01/03 11:49:39;;;;;;;126.05;55.15;;;5.60;99.90;;;;;;6153376;23;20083;-83
2023/01/03 11:52:20;;;;;;;113.18;54.92;;;5.60;99.90;;;;;;6128095;23;20078;-83
2023/01/03 11:55:11;;;;;;;106.93;52.35;;;5.60;99.90;;;;;;6152910;23;20095;-82
2023/01/03 11:57:50;;;;;;;109.68;53.15;;;5.60;99.90;;;;;;6152218;23;20017;-83
2023/01/03 12:00:31;;;;;;;104.60;52.25;;;5.60;99.90;;;;;;6154110;23;20010;-83
2023/01/03 12:03:05;;;;;;;98.00;51.25;;;5.70;99.90;;;;;;6152688;23;20017;-83
2023/01/03 12:05:46;;;;;;;106.60;52.42;;;5.80;99.90;;;;;;6127909;23;20448;-81
2023/01/03 12:08:17;;;;;;;95.13;48.58;;;5.70;99.90;;;;;;6127752;23;20017;-82
2023/01/03 12:11:09;;;;;;;103.45;51.67;;;5.70;99.90;;;;;;6152264;23;20017;-81
2023/01/03 12:13:43;;;;;;;102.10;51.83;;;5.80;99.90;;;;;;6126800;23;20018;-81
2023/01/03 12:16:48;;;;;;;87.97;46.83;;;5.80;99.90;;;;;;6127619;23;20014;-81
2023/01/03 12:19:34;;;;;;;103.18;50.45;;;5.80;99.90;;;;;;6152366;23;20017;-81
2023/01/03 12:22:19;;;;;;;98.60;49.83;;;5.80;99.90;;;;;;6153807;23;20013;-81
2023/01/03 12:24:51;;;;;;;87.60;46.33;;;6.00;99.90;;;;;;6152168;23;20088;-82
2023/01/03 12:27:33;;;;;;;90.20;47.55;;;5.90;99.90;;;;;;6152179;23;20013;-83
2023/01/03 12:30:15;;;;;;;85.10;46.63;;;5.90;99.90;;;;;;6152257;23;20016;-81
2023/01/03 12:32:54;;;;;;;79.05;45.47;;;5.90;99.90;;;;;;6151862;23;20345;-81
2023/01/03 12:35:37;;;;;;;86.60;46.67;;;5.90;99.90;;;;;;6151908;23;20013;-80
2023/01/03 12:38:05;;;;;;;82.20;43.60;;;5.90;99.90;;;;;;6127777;23;20117;-81
2023/01/03 12:40:52;;;;;;;69.47;42.13;;;5.90;99.90;;;;;;6152052;23;20096;-81
2023/01/03 12:43:36;;;;;;;76.78;42.47;;;5.90;99.90;;;;;;6151258;23;20269;-81
2023/01/03 12:46:10;;;;;;;84.35;44.13;;;6.00;99.90;;;;;;6152131;23;20021;-81
2023/01/03 12:49:17;;;;;;;78.32;42.08;;;6.00;99.90;;;;;;6152169;23;20019;-83
2023/01/03 12:51:43;;;;;;;70.45;40.33;;;6.00;99.90;;;;;;6041931;23;20042;-82
2023/01/03 12:54:25;;;;;;;65.32;39.00;;;6.10;99.90;;;;;;6063216;23;20462;-82
2023/01/03 12:57:02;;;;;;;64.65;39.05;;;6.10;99.90;;;;;;6062633;23;20015;-85
2023/01/03 12:59:53;;;;;;;72.82;38.80;;;6.20;99.90;;;;;;6014197;23;20018;-82
2023/01/03 13:02:23;;;;;;;68.00;38.03;;;6.40;99.90;;;;;;6039019;23;20338;-82
2023/01/03 13:04:53;;;;;;;74.95;38.85;;;6.10;99.90;;;;;;6039052;23;20098;-83
2023/01/03 13:07:21;;;;;;;68.60;39.38;;;6.20;99.90;;;;;;6063021;23;20479;-81
2023/01/03 13:10:05;;;;;;;65.40;38.15;;;6.20;99.90;;;;;;6039000;23;20015;-81
2023/01/03 13:12:35;;;;;;;63.53;37.22;;;6.20;99.90;;;;;;6036745;23;20029;-81
2023/01/03 13:15:01;;;;;;;60.03;37.53;;;6.30;99.90;;;;;;6038506;23;20075;-83
2023/01/03 13:17:29;;;;;;;69.13;36.72;;;6.50;99.90;;;;;;6015455;23;20015;-85
2023/01/03 13:19:58;;;;;;;62.78;37.50;;;6.30;99.90;;;;;;6015429;23;20015;-82
2023/01/03 13:22:46;;;;;;;60.90;36.65;;;6.30;99.90;;;;;;6039088;23;20015;-83
2023/01/03 13:25:32;;;;;;;57.33;35.80;;;6.30;99.90;;;;;;6050437;23;20020;-82
2023/01/03 13:28:02;;;;;;;63.72;36.28;;;6.30;99.90;;;;;;6151559;23;20005;-82
2023/01/03 13:30:34;;;;;;;64.85;34.95;;;6.30;99.90;;;;;;6151129;23;20021;-80
2023/01/03 13:33:11;;;;;;;65.00;37.67;;;6.30;99.90;;;;;;6150833;23;20100;-80
2023/01/03 13:35:39;;;;;;;70.03;40.47;;;6.40;99.90;;;;;;6151343;23;20014;-81
2023/01/03 13:38:30;;;;;;;67.95;44.75;;;6.40;99.90;;;;;;6152216;23;20076;-80
2023/01/03 13:41:25;;;;;;;60.13;37.65;;;6.40;99.90;;;;;;6152188;23;20368;-79
2023/01/03 13:43:52;;;;;;;59.00;36.33;;;6.40;99.90;;;;;;6152206;23;20174;-80
2023/01/03 13:46:26;;;;;;;75.00;50.63;;;6.50;99.90;;;;;;6152168;23;20064;-80
2023/01/03 13:49:01;;;;;;;86.47;55.78;;;6.50;99.90;;;;;;6152680;23;20018;-82
2023/01/03 13:51:38;;;;;;;75.10;47.03;;;6.50;99.90;;;;;;6150576;23;20444;-81
2023/01/03 13:54:32;;;;;;;66.65;44.88;;;6.50;99.90;;;;;;6151765;23;20166;-83
2023/01/03 13:57:05;;;;;;;54.90;39.17;;;6.60;99.90;;;;;;6126328;23;20010;-82